McCarran, Nevada
Current Conditions -  °F | °C
As of 4:55 AM on Sunday 23 Nov 2014 (Local Time) from KRNO Reporting Station
Few Clouds Few Clouds  
Wind Chill: -3°   Ceiling: Unl
Heat Index: -1°   Visibility: 10mi
Dew Point: -4°   Wind: 5mph
Humidity: 76%   Direction: 300°WNW
Pressure: 30.36"   Gusts: NA
Location:  39.5403°N, 119.672°W
Report Text: KRNO 231255Z 30004KT 10SM FEW220 M01/M04 A3036 RMK AO2 SLP279 T10061044
Loading
Personal Weather Stations






























Interactive Weather Map New forecast layout! Learn more

10-Day Weather Forecast

Advertisements
Track Severe Weather on mobile